Time;durP1;ratioP1;P1;durP2;ratioP2;P2;SDS_P1;SDS_P2;PMS_P1;PMS_P2;Temp;Humidity;BMP_temperature;BMP_pressure;BME280_temperature;BME280_humidity;BME280_pressure;Samples;Min_cycle;Max_cycle;Signal;HPM_P1;HPM_P2
2022/03/31 00:00:17;;;;;;;2.75;1.08;;;3.30;99.90;;;;;;5043196;28;20049;-80
2022/03/31 00:02:43;;;;;;;4.35;1.40;;;3.20;99.90;;;;;;5035856;28;20043;-80
2022/03/31 00:05:09;;;;;;;3.92;1.00;;;3.30;99.90;;;;;;5064289;28;20116;-80
2022/03/31 00:07:35;;;;;;;3.08;1.33;;;3.30;99.90;;;;;;5033438;28;20551;-80
2022/03/31 00:10:01;;;;;;;2.72;0.85;;;3.30;99.90;;;;;;5035312;28;20483;-80
2022/03/31 00:12:26;;;;;;;5.30;1.42;;;3.30;99.90;;;;;;5052319;28;20041;-80
2022/03/31 00:14:52;;;;;;;2.45;0.77;;;3.30;99.90;;;;;;5036147;28;20123;-81
2022/03/31 00:17:18;;;;;;;5.25;1.15;;;3.30;99.90;;;;;;5053111;28;20049;-80
2022/03/31 00:19:44;;;;;;;2.13;1.00;;;3.30;99.90;;;;;;5052532;28;20041;-80
2022/03/31 00:32:33;;;;;;;3.58;1.33;;;3.30;99.90;;;;;;5041713;28;20288;-80
2022/03/31 00:34:59;;;;;;;2.53;0.98;;;3.30;99.90;;;;;;5066584;28;20041;-80
2022/03/31 00:37:37;;;;;;;4.43;1.20;;;3.20;99.90;;;;;;5052058;28;20037;-80
2022/03/31 00:40:04;;;;;;;4.30;1.42;;;3.20;99.90;;;;;;5052163;28;20487;-80
2022/03/31 00:42:30;;;;;;;2.78;0.90;;;3.20;99.90;;;;;;5052237;28;20040;-80
2022/03/31 00:44:55;;;;;;;3.15;1.27;;;3.20;99.90;;;;;;5058391;28;20032;-80
2022/03/31 00:47:21;;;;;;;2.13;0.98;;;3.20;99.90;;;;;;5028349;28;20045;-80
2022/03/31 00:49:47;;;;;;;2.45;1.00;;;3.20;99.90;;;;;;5039272;28;20171;-80
2022/03/31 00:52:13;;;;;;;1.63;1.10;;;3.20;99.90;;;;;;5033739;28;20505;-81
2022/03/31 00:54:40;;;;;;;2.28;1.00;;;3.10;99.90;;;;;;5052237;28;20041;-80
2022/03/31 00:57:12;;;;;;;1.67;1.10;;;3.10;99.90;;;;;;5056535;28;20358;-80
2022/03/31 00:59:37;;;;;;;1.93;1.10;;;3.20;99.90;;;;;;5076250;28;20501;-80
2022/03/31 01:02:04;;;;;;;3.00;1.08;;;3.20;99.90;;;;;;5048340;28;20299;-80
2022/03/31 01:04:30;;;;;;;1.25;0.82;;;3.20;99.90;;;;;;5047115;28;20040;-80
2022/03/31 01:06:56;;;;;;;3.03;1.13;;;3.20;99.90;;;;;;5043887;28;20075;-80
2022/03/31 01:09:22;;;;;;;2.35;1.20;;;3.20;99.90;;;;;;5044270;28;20032;-80
2022/03/31 01:11:48;;;;;;;4.15;1.73;;;3.20;99.90;;;;;;5062003;28;20044;-80
2022/03/31 01:14:14;;;;;;;3.08;1.25;;;3.10;99.90;;;;;;5041000;28;20049;-80
2022/03/31 01:16:40;;;;;;;3.00;1.35;;;3.20;99.90;;;;;;5035244;28;20037;-80
2022/03/31 01:19:09;;;;;;;3.33;1.17;;;3.10;99.90;;;;;;5059018;28;20037;-80
2022/03/31 01:21:39;;;;;;;3.95;1.35;;;3.10;99.90;;;;;;5039366;28;20398;-80
2022/03/31 01:24:07;;;;;;;2.53;1.60;;;3.10;99.90;;;;;;5055093;28;20041;-80
2022/03/31 01:26:34;;;;;;;4.18;1.55;;;3.10;99.90;;;;;;5038150;28;20036;-80
2022/03/31 01:29:00;;;;;;;6.22;1.60;;;3.10;99.90;;;;;;5053636;28;20028;-80
2022/03/31 01:31:26;;;;;;;3.30;1.60;;;3.10;99.90;;;;;;5055426;28;20033;-80
2022/03/31 01:33:53;;;;;;;4.30;1.70;;;3.10;99.90;;;;;;5055404;28;20079;-80
2022/03/31 01:36:19;;;;;;;3.25;1.63;;;3.10;99.90;;;;;;5054317;28;20053;-80
2022/03/31 01:38:46;;;;;;;7.35;2.15;;;3.10;99.90;;;;;;5054856;28;20040;-80
2022/03/31 01:41:12;;;;;;;3.13;1.67;;;3.10;99.90;;;;;;5058648;28;20102;-80
2022/03/31 01:43:37;;;;;;;7.65;2.35;;;3.00;99.90;;;;;;5049737;28;20041;-80
2022/03/31 01:46:03;;;;;;;5.38;2.20;;;3.00;99.90;;;;;;5065140;28;20236;-80
2022/03/31 01:48:30;;;;;;;6.30;2.22;;;2.90;99.90;;;;;;5059537;28;20119;-80
2022/03/31 01:50:57;;;;;;;6.75;3.22;;;2.90;99.90;;;;;;5054848;28;20029;-80
2022/03/31 01:53:22;;;;;;;6.35;2.70;;;3.00;99.90;;;;;;5044067;28;20087;-80
2022/03/31 01:55:48;;;;;;;6.22;2.60;;;2.90;99.90;;;;;;5032199;28;20064;-81
2022/03/31 01:58:14;;;;;;;5.22;2.80;;;2.80;99.90;;;;;;5052822;28;20049;-80
2022/03/31 02:00:39;;;;;;;6.18;2.90;;;2.80;99.90;;;;;;5053353;28;20119;-80
2022/03/31 02:03:05;;;;;;;10.40;3.40;;;2.80;99.90;;;;;;5051606;28;20041;-81
2022/03/31 02:05:31;;;;;;;8.13;3.28;;;2.80;99.90;;;;;;5054184;28;20063;-80
2022/03/31 02:07:57;;;;;;;6.10;3.47;;;2.80;99.90;;;;;;5037707;28;20090;-80
2022/03/31 02:10:25;;;;;;;4.80;3.20;;;2.80;99.90;;;;;;5062609;28;20431;-80
2022/03/31 02:12:51;;;;;;;6.93;3.03;;;2.80;99.90;;;;;;5060414;28;20045;-81
2022/03/31 02:15:17;;;;;;;9.52;4.03;;;2.80;99.90;;;;;;5052410;28;20398;-80
2022/03/31 02:17:42;;;;;;;8.70;3.55;;;2.80;99.90;;;;;;5054495;28;20471;-80
2022/03/31 02:20:09;;;;;;;5.75;3.70;;;2.80;99.90;;;;;;5053312;28;20036;-80
2022/03/31 02:22:35;;;;;;;4.43;4.00;;;2.70;99.90;;;;;;5054648;28;20049;-80
2022/03/31 02:25:01;;;;;;;7.07;3.70;;;2.70;99.90;;;;;;5055500;28;20053;-80
2022/03/31 02:27:26;;;;;;;7.35;5.13;;;2.70;99.90;;;;;;5047804;28;20642;-80
2022/03/31 02:29:52;;;;;;;6.65;5.50;;;2.70;99.90;;;;;;5068572;28;20050;-80
2022/03/31 02:32:17;;;;;;;8.50;5.47;;;2.60;99.90;;;;;;5060555;28;20029;-80
2022/03/31 02:34:43;;;;;;;8.95;6.32;;;2.70;99.90;;;;;;5068606;28;20127;-80
2022/03/31 02:37:08;;;;;;;10.65;7.03;;;2.70;99.90;;;;;;5056996;28;20120;-80
2022/03/31 02:39:34;;;;;;;10.48;7.38;;;2.70;99.90;;;;;;5059395;28;20049;-80
2022/03/31 02:42:03;;;;;;;10.07;7.32;;;2.70;99.90;;;;;;5037389;28;20582;-80
2022/03/31 02:44:29;;;;;;;9.32;7.50;;;2.70;99.90;;;;;;5064515;28;20470;-80
2022/03/31 02:46:54;;;;;;;9.80;8.13;;;2.70;99.90;;;;;;5053887;28;20033;-80
2022/03/31 02:49:20;;;;;;;11.10;8.63;;;2.70;99.90;;;;;;5054522;28;20033;-80
2022/03/31 02:51:46;;;;;;;11.48;8.23;;;2.70;99.90;;;;;;5053418;28;20043;-80
2022/03/31 02:56:56;;;;;;;16.00;11.57;;;2.70;99.90;;;;;;5054691;28;20044;-80
2022/03/31 02:59:22;;;;;;;13.25;10.82;;;2.70;99.90;;;;;;5060670;28;20052;-80
2022/03/31 03:01:48;;;;;;;11.80;10.55;;;2.70;99.90;;;;;;5053397;28;20052;-80
2022/03/31 03:04:13;;;;;;;14.25;11.35;;;2.70;99.90;;;;;;5055453;28;20045;-80
2022/03/31 03:06:39;;;;;;;16.65;12.63;;;2.70;99.90;;;;;;5036522;28;20039;-80
2022/03/31 03:09:06;;;;;;;15.88;12.95;;;2.80;99.90;;;;;;5053320;28;20064;-80
2022/03/31 03:11:32;;;;;;;14.98;13.20;;;2.70;99.90;;;;;;5052996;28;20083;-80
2022/03/31 03:13:58;;;;;;;17.05;13.85;;;2.70;99.90;;;;;;5036451;28;20102;-80
2022/03/31 03:16:25;;;;;;;17.60;13.25;;;2.70;99.90;;;;;;5033064;28;20472;-80
2022/03/31 03:18:52;;;;;;;14.02;12.63;;;2.70;99.90;;;;;;5055644;28;20055;-80
2022/03/31 03:21:18;;;;;;;13.50;11.25;;;2.70;99.90;;;;;;5059899;28;20052;-80
2022/03/31 03:23:43;;;;;;;13.77;11.27;;;2.70;99.90;;;;;;5052792;28;20106;-80
2022/03/31 03:26:09;;;;;;;13.10;11.77;;;2.70;99.90;;;;;;5053146;28;20037;-80
2022/03/31 03:28:38;;;;;;;14.13;11.98;;;2.70;99.90;;;;;;5062048;28;20083;-80
2022/03/31 03:31:04;;;;;;;14.43;12.02;;;2.70;99.90;;;;;;5051549;28;20166;-80
2022/03/31 03:33:31;;;;;;;16.08;12.27;;;2.70;99.90;;;;;;5043231;28;20032;-81
2022/03/31 03:35:57;;;;;;;11.63;10.43;;;2.70;99.90;;;;;;5048546;28;20067;-80
2022/03/31 03:38:23;;;;;;;12.82;11.43;;;2.70;99.90;;;;;;5054133;28;20458;-81
2022/03/31 03:40:48;;;;;;;12.13;10.85;;;2.70;99.90;;;;;;5054946;28;20043;-81
2022/03/31 03:43:14;;;;;;;11.07;9.95;;;2.70;99.90;;;;;;5049331;28;20445;-81
2022/03/31 03:45:40;;;;;;;11.88;10.45;;;2.60;99.90;;;;;;5052522;28;20562;-81
2022/03/31 03:48:07;;;;;;;13.95;10.98;;;2.60;99.90;;;;;;5052953;28;20048;-81
2022/03/31 03:50:33;;;;;;;12.32;11.02;;;2.60;99.90;;;;;;5054023;28;20119;-81
2022/03/31 03:53:01;;;;;;;13.52;11.32;;;2.60;99.90;;;;;;5036433;28;20033;-81
2022/03/31 03:55:27;;;;;;;16.50;13.63;;;2.60;99.90;;;;;;5046094;28;20037;-81
2022/03/31 03:57:52;;;;;;;15.07;13.43;;;2.60;99.90;;;;;;5052349;28;20371;-81
2022/03/31 04:00:18;;;;;;;15.63;12.93;;;2.60;99.90;;;;;;5063787;28;20098;-80
2022/03/31 04:02:44;;;;;;;16.33;14.10;;;2.60;99.90;;;;;;5066175;28;20067;-81
2022/03/31 04:05:10;;;;;;;16.05;14.05;;;2.60;99.90;;;;;;5052000;28;20037;-80
2022/03/31 04:07:36;;;;;;;15.80;14.20;;;2.60;99.90;;;;;;5058818;28;20032;-81
2022/03/31 04:10:01;;;;;;;18.35;15.88;;;2.60;99.90;;;;;;5056800;28;20112;-80
2022/03/31 04:12:27;;;;;;;16.13;13.98;;;2.60;99.90;;;;;;5065590;28;20045;-81
2022/03/31 04:14:52;;;;;;;15.95;12.15;;;2.50;99.90;;;;;;5052228;28;20517;-80
2022/03/31 04:17:18;;;;;;;16.90;13.73;;;2.50;99.90;;;;;;5036775;28;20425;-81
2022/03/31 04:19:43;;;;;;;14.40;12.15;;;2.50;99.90;;;;;;5041919;28;20045;-81
2022/03/31 04:22:10;;;;;;;14.25;12.75;;;2.50;99.90;;;;;;5048667;28;20475;-80
2022/03/31 04:24:35;;;;;;;14.13;12.65;;;2.50;99.90;;;;;;5051409;28;20045;-80
2022/03/31 04:27:01;;;;;;;14.07;12.35;;;2.50;99.90;;;;;;5042293;28;20143;-80
2022/03/31 04:29:27;;;;;;;13.32;11.95;;;2.50;99.90;;;;;;5058569;28;20037;-81
2022/03/31 04:31:53;;;;;;;13.05;11.70;;;2.50;99.90;;;;;;5051917;28;20051;-80
2022/03/31 04:34:19;;;;;;;14.77;12.48;;;2.40;99.90;;;;;;5035358;28;20124;-80
2022/03/31 04:36:48;;;;;;;15.52;13.20;;;2.40;99.90;;;;;;5064599;28;20072;-80
2022/03/31 04:39:14;;;;;;;14.05;12.30;;;2.30;99.90;;;;;;5051628;28;20056;-80
2022/03/31 04:41:40;;;;;;;13.93;12.52;;;2.40;99.90;;;;;;5051839;28;20041;-80
2022/03/31 04:44:06;;;;;;;13.27;11.88;;;2.30;99.90;;;;;;5035183;28;20041;-81
2022/03/31 04:46:33;;;;;;;14.57;13.00;;;2.30;99.90;;;;;;5054435;28;20041;-80
2022/03/31 04:48:59;;;;;;;14.60;13.10;;;2.30;99.90;;;;;;5051119;28;20065;-81
2022/03/31 04:51:25;;;;;;;15.20;13.40;;;2.30;99.90;;;;;;5051905;28;20724;-81
2022/03/31 04:53:50;;;;;;;18.02;14.52;;;2.30;99.90;;;;;;5068640;28;20080;-81
2022/03/31 04:56:16;;;;;;;18.65;15.05;;;2.30;99.90;;;;;;5050866;28;20044;-81
2022/03/31 04:58:42;;;;;;;16.73;15.02;;;2.30;99.90;;;;;;5050724;28;20072;-81
2022/03/31 05:01:08;;;;;;;17.88;15.98;;;2.20;99.90;;;;;;5054137;28;20483;-81
2022/03/31 05:03:33;;;;;;;17.05;15.15;;;2.30;99.90;;;;;;5051565;28;20052;-81
2022/03/31 05:05:59;;;;;;;19.10;17.10;;;2.30;99.90;;;;;;5056400;28;20067;-81
2022/03/31 05:08:24;;;;;;;16.90;15.10;;;2.20;99.90;;;;;;5055317;28;20033;-81
2022/03/31 05:10:50;;;;;;;18.83;16.83;;;2.20;99.90;;;;;;5051940;28;20482;-81
2022/03/31 05:13:16;;;;;;;22.10;18.10;;;2.20;99.90;;;;;;5051510;28;20049;-81
2022/03/31 05:15:41;;;;;;;21.00;17.73;;;2.30;99.90;;;;;;5063551;28;20040;-81
2022/03/31 05:18:07;;;;;;;19.05;16.92;;;2.30;99.90;;;;;;5048929;28;20131;-81
2022/03/31 05:20:32;;;;;;;23.27;17.80;;;2.30;99.90;;;;;;5041583;28;20072;-82
2022/03/31 05:22:58;;;;;;;22.08;18.42;;;2.30;99.90;;;;;;5054004;28;20541;-80
2022/03/31 05:25:24;;;;;;;18.35;16.45;;;2.30;99.90;;;;;;5051683;28;20056;-81
2022/03/31 05:27:51;;;;;;;19.10;17.02;;;2.30;99.90;;;;;;5046305;28;20040;-82
2022/03/31 05:30:19;;;;;;;18.70;16.67;;;2.30;99.90;;;;;;5050586;28;20410;-80
2022/03/31 05:32:45;;;;;;;18.10;15.75;;;2.30;99.90;;;;;;5033388;28;20120;-81
2022/03/31 05:35:13;;;;;;;20.55;18.05;;;2.30;99.90;;;;;;5052375;28;20048;-82
2022/03/31 05:37:40;;;;;;;19.55;16.58;;;2.30;99.90;;;;;;5048701;28;20041;-81
2022/03/31 05:40:08;;;;;;;18.23;16.30;;;2.30;99.90;;;;;;5036115;28;20075;-81
2022/03/31 05:42:34;;;;;;;17.73;15.82;;;2.30;99.90;;;;;;5033383;28;20333;-81
2022/03/31 05:45:01;;;;;;;19.30;17.13;;;2.40;99.90;;;;;;5032522;28;20497;-80
2022/03/31 05:47:27;;;;;;;19.33;16.65;;;2.40;99.90;;;;;;5036589;28;20040;-80
2022/03/31 05:49:53;;;;;;;16.15;14.55;;;2.40;99.90;;;;;;5049535;28;20037;-80
2022/03/31 05:52:19;;;;;;;15.88;14.35;;;2.40;99.90;;;;;;5052285;28;20075;-80
2022/03/31 05:54:46;;;;;;;17.48;14.98;;;2.40;99.90;;;;;;5057403;28;20037;-80
2022/03/31 05:57:12;;;;;;;16.17;14.48;;;2.40;99.90;;;;;;5031314;28;20045;-81
2022/03/31 05:59:37;;;;;;;14.77;13.25;;;2.40;99.90;;;;;;5034179;28;20068;-82
2022/03/31 06:02:03;;;;;;;15.32;13.82;;;2.40;99.90;;;;;;5063334;28;20044;-82
2022/03/31 06:04:29;;;;;;;15.02;13.48;;;2.40;99.90;;;;;;5068533;28;20044;-82
2022/03/31 06:06:55;;;;;;;16.10;14.60;;;2.40;99.90;;;;;;5050775;28;20072;-83
2022/03/31 06:09:20;;;;;;;16.75;15.05;;;2.30;99.90;;;;;;5053287;28;20126;-83
2022/03/31 06:11:46;;;;;;;17.77;16.00;;;2.30;99.90;;;;;;5059200;28;20159;-82
2022/03/31 06:14:12;;;;;;;18.15;16.27;;;2.40;99.90;;;;;;5037667;28;20045;-82
2022/03/31 06:16:39;;;;;;;17.10;15.30;;;2.40;99.90;;;;;;5054361;28;20045;-81
2022/03/31 06:19:05;;;;;;;16.98;15.27;;;2.40;99.90;;;;;;5045942;28;20032;-82
2022/03/31 06:21:31;;;;;;;17.02;15.38;;;2.50;99.90;;;;;;5056139;28;20107;-82
2022/03/31 06:23:57;;;;;;;15.82;14.25;;;2.50;99.90;;;;;;5053034;28;20067;-82
2022/03/31 06:26:23;;;;;;;14.40;12.98;;;2.50;99.90;;;;;;5038113;28;20501;-81
2022/03/31 06:28:49;;;;;;;17.67;15.93;;;2.50;99.90;;;;;;5034518;28;20075;-81
2022/03/31 06:31:15;;;;;;;14.85;13.50;;;2.50;99.90;;;;;;5052093;28;20044;-81
2022/03/31 06:33:40;;;;;;;14.13;12.75;;;2.50;99.90;;;;;;5061881;28;20040;-81
2022/03/31 06:36:06;;;;;;;16.45;14.90;;;2.50;99.90;;;;;;5060806;22;20508;-86
2022/03/31 06:38:32;;;;;;;15.73;14.23;;;2.50;99.90;;;;;;5043033;28;20075;-86
2022/03/31 06:41:06;;;;;;;15.20;13.68;;;2.50;99.90;;;;;;5052031;28;20045;-86
2022/03/31 06:43:37;;;;;;;15.38;13.88;;;2.60;99.90;;;;;;5042589;28;20052;-85
2022/03/31 06:46:03;;;;;;;13.27;12.07;;;2.60;99.90;;;;;;5030661;28;20049;-86
2022/03/31 06:48:30;;;;;;;12.88;11.77;;;2.60;99.90;;;;;;5035137;28;20051;-87
2022/03/31 06:50:57;;;;;;;13.32;12.13;;;2.60;99.90;;;;;;5040444;28;20075;-86
2022/03/31 06:53:22;;;;;;;13.60;12.30;;;2.50;99.90;;;;;;5044668;28;20052;-87
2022/03/31 06:55:48;;;;;;;12.60;11.40;;;2.60;99.90;;;;;;5050219;28;20040;-84
2022/03/31 06:58:14;;;;;;;13.88;12.65;;;2.60;99.90;;;;;;5049584;28;20112;-85
2022/03/31 07:00:39;;;;;;;13.68;12.40;;;2.60;99.90;;;;;;5042894;28;20160;-85
2022/03/31 07:03:05;;;;;;;12.27;11.07;;;2.70;99.90;;;;;;5052028;28;20049;-87
2022/03/31 07:05:31;;;;;;;13.70;12.40;;;2.60;99.90;;;;;;5047307;28;20045;-86
2022/03/31 07:07:56;;;;;;;14.20;12.80;;;2.60;99.90;;;;;;5040823;28;20585;-87
2022/03/31 07:10:22;;;;;;;17.15;13.02;;;2.60;99.90;;;;;;5046427;28;20120;-85
2022/03/31 07:12:48;;;;;;;14.18;12.77;;;2.80;99.90;;;;;;5033117;28;20037;-87
2022/03/31 07:15:14;;;;;;;14.10;12.80;;;2.80;99.90;;;;;;5046419;28;20041;-87
2022/03/31 07:17:39;;;;;;;14.20;12.90;;;2.70;99.90;;;;;;5044834;28;20054;-85
2022/03/31 07:20:06;;;;;;;14.07;12.68;;;2.80;99.90;;;;;;5051810;28;20116;-86
2022/03/31 07:22:32;;;;;;;14.38;13.00;;;2.80;99.90;;;;;;5046907;28;20068;-86
2022/03/31 07:24:59;;;;;;;14.10;12.80;;;2.70;99.90;;;;;;5050374;28;20402;-85
2022/03/31 07:27:25;;;;;;;13.98;12.68;;;2.70;99.90;;;;;;5052137;28;20059;-86
2022/03/31 07:29:50;;;;;;;14.88;13.48;;;2.70;99.90;;;;;;5019617;28;20116;-86
2022/03/31 07:32:16;;;;;;;14.20;12.90;;;2.80;99.90;;;;;;5048424;28;20478;-88
2022/03/31 07:34:42;;;;;;;14.30;12.93;;;2.80;99.90;;;;;;5051998;28;20040;-86
2022/03/31 07:37:07;;;;;;;13.70;12.50;;;2.80;99.90;;;;;;5023352;28;20057;-86
2022/03/31 07:39:35;;;;;;;14.95;13.52;;;2.70;99.90;;;;;;5067424;28;20105;-86
2022/03/31 07:42:02;;;;;;;15.07;13.57;;;2.90;99.90;;;;;;5056537;28;20079;-86
2022/03/31 07:44:27;;;;;;;14.65;13.25;;;2.80;99.90;;;;;;5032347;28;20103;-86
2022/03/31 07:46:54;;;;;;;13.65;12.43;;;2.80;99.90;;;;;;5033000;28;20475;-87
2022/03/31 07:49:20;;;;;;;14.50;13.10;;;2.80;99.90;;;;;;5042690;28;20086;-87
2022/03/31 07:51:45;;;;;;;14.90;13.23;;;2.80;99.90;;;;;;5035602;28;20502;-86
2022/03/31 07:54:11;;;;;;;15.50;13.98;;;2.80;99.90;;;;;;5027965;28;20098;-86
2022/03/31 07:56:36;;;;;;;14.85;13.45;;;2.90;99.90;;;;;;5051966;28;20056;-86
2022/03/31 07:59:02;;;;;;;14.07;12.50;;;2.80;99.90;;;;;;5049987;28;20431;-86
2022/03/31 08:01:28;;;;;;;13.73;12.43;;;2.80;99.90;;;;;;5052430;28;20439;-86
2022/03/31 08:03:53;;;;;;;13.98;12.68;;;2.90;99.90;;;;;;5042060;28;20042;-86
2022/03/31 08:06:19;;;;;;;13.38;12.18;;;2.80;99.90;;;;;;5035687;28;20041;-86
2022/03/31 08:08:45;;;;;;;12.18;11.00;;;2.70;99.90;;;;;;5052063;28;20052;-87
2022/03/31 08:11:10;;;;;;;14.52;13.18;;;2.80;99.90;;;;;;5038430;28;20376;-87
2022/03/31 08:13:36;;;;;;;13.52;12.32;;;2.80;99.90;;;;;;5035334;28;20067;-87
2022/03/31 08:16:02;;;;;;;15.05;13.75;;;2.80;99.90;;;;;;5021686;28;20041;-87
2022/03/31 08:18:33;;;;;;;13.93;12.63;;;2.70;99.90;;;;;;5052037;28;20106;-86
2022/03/31 08:20:59;;;;;;;13.60;12.25;;;2.70;99.90;;;;;;5031878;28;20052;-86
2022/03/31 08:23:25;;;;;;;13.20;11.98;;;2.70;99.90;;;;;;5040550;28;20048;-86
2022/03/31 08:25:51;;;;;;;9.60;8.70;;;2.70;99.90;;;;;;5038180;28;20045;-86
2022/03/31 08:28:17;;;;;;;10.82;9.73;;;2.90;99.90;;;;;;5045592;28;20041;-86
2022/03/31 08:30:43;;;;;;;10.10;8.98;;;3.10;99.90;;;;;;5035171;28;20040;-86
2022/03/31 08:33:09;;;;;;;10.32;9.35;;;3.20;99.90;;;;;;5051860;28;20032;-86
2022/03/31 08:35:35;;;;;;;9.98;8.98;;;3.10;99.90;;;;;;5032121;28;20156;-86
2022/03/31 08:38:00;;;;;;;7.97;7.25;;;3.20;99.90;;;;;;5051609;28;20060;-86
2022/03/31 08:40:26;;;;;;;8.38;7.68;;;3.20;99.90;;;;;;5051952;28;20394;-87
2022/03/31 08:42:53;;;;;;;8.25;7.45;;;2.90;99.90;;;;;;5043843;28;20038;-87
2022/03/31 08:45:20;;;;;;;8.35;7.60;;;2.80;99.90;;;;;;5046481;28;20044;-86
2022/03/31 08:47:48;;;;;;;6.93;6.22;;;2.90;99.90;;;;;;5051790;28;20053;-87
2022/03/31 08:50:14;;;;;;;6.90;6.30;;;2.80;99.90;;;;;;5037573;28;20087;-87
2022/03/31 08:52:40;;;;;;;7.78;6.97;;;2.60;99.90;;;;;;5051593;28;20049;-87
2022/03/31 08:55:08;;;;;;;7.47;6.78;;;2.60;99.90;;;;;;5047259;28;20057;-89
2022/03/31 08:57:46;;;;;;;7.28;6.57;;;2.50;99.90;;;;;;5051835;28;20406;-88
2022/03/31 09:00:14;;;;;;;7.15;6.47;;;2.50;99.90;;;;;;5035559;28;20386;-89
2022/03/31 09:02:51;;;;;;;5.57;5.07;;;2.40;99.90;;;;;;5052528;28;20066;-91
2022/03/31 09:05:16;;;;;;;7.38;6.60;;;2.50;99.90;;;;;;5038000;28;20055;-91
2022/03/31 09:07:55;;;;;;;6.60;6.00;;;2.60;99.90;;;;;;5053068;28;20041;-90
2022/03/31 09:10:33;;;;;;;7.15;6.55;;;2.50;99.90;;;;;;5036374;28;20115;-90
2022/03/31 09:13:03;;;;;;;7.00;6.40;;;2.40;99.90;;;;;;5033383;28;20059;-90
2022/03/31 09:15:29;;;;;;;7.40;6.70;;;2.30;99.90;;;;;;5036430;28;20391;-90
2022/03/31 09:17:56;;;;;;;8.65;7.75;;;2.30;99.90;;;;;;5039017;28;20041;-89
2022/03/31 09:20:23;;;;;;;8.82;7.93;;;2.30;99.90;;;;;;5051237;28;20510;-90
2022/03/31 09:22:50;;;;;;;9.60;8.57;;;2.50;99.90;;;;;;5026768;28;20494;-90
2022/03/31 09:25:26;;;;;;;8.82;7.90;;;2.50;99.90;;;;;;5039266;28;20044;-90
2022/03/31 09:27:52;;;;;;;9.75;8.75;;;2.40;99.90;;;;;;5039689;28;20112;-90
2022/03/31 09:30:19;;;;;;;10.43;9.43;;;2.20;99.90;;;;;;5057084;28;20405;-90
2022/03/31 09:32:49;;;;;;;9.10;8.20;;;2.10;99.90;;;;;;5056885;28;20167;-91
2022/03/31 09:35:18;;;;;;;10.95;9.85;;;1.90;99.90;;;;;;5041293;28;20033;-90
2022/03/31 09:37:45;;;;;;;10.70;9.60;;;1.90;99.90;;;;;;5040717;28;20137;-91
2022/03/31 09:40:11;;;;;;;11.02;9.80;;;1.90;99.90;;;;;;5043917;28;20057;-91
2022/03/31 09:42:36;;;;;;;12.32;10.73;;;1.80;99.90;;;;;;5052726;28;20045;-91
2022/03/31 09:45:03;;;;;;;12.13;10.63;;;1.80;99.90;;;;;;5056912;28;20051;-91
2022/03/31 09:47:29;;;;;;;11.65;10.45;;;1.70;99.90;;;;;;5037918;28;20037;-91
2022/03/31 09:49:56;;;;;;;12.00;10.80;;;1.70;99.90;;;;;;5057093;28;20120;-91
2022/03/31 09:52:22;;;;;;;12.50;11.20;;;1.50;99.90;;;;;;5050469;28;20033;-91
2022/03/31 09:54:49;;;;;;;11.23;9.95;;;1.50;99.90;;;;;;5048734;28;20032;-91
2022/03/31 09:57:17;;;;;;;11.50;10.23;;;1.50;99.90;;;;;;5033225;28;20045;-91
2022/03/31 09:59:49;;;;;;;11.68;10.43;;;1.50;99.90;;;;;;5048321;28;20421;-92
2022/03/31 10:02:15;;;;;;;13.98;12.27;;;1.50;99.90;;;;;;5053222;28;20034;-88
2022/03/31 10:04:44;;;;;;;13.82;11.38;;;1.40;99.90;;;;;;5035088;28;20037;-88
2022/03/31 10:07:11;;;;;;;14.18;12.18;;;1.40;99.90;;;;;;5052925;28;20051;-86
2022/03/31 10:09:39;;;;;;;13.50;11.75;;;1.30;99.90;;;;;;5036750;28;20037;-87
2022/03/31 10:12:41;;;;;;;14.88;13.13;;;1.30;99.90;;;;;;5054170;28;20087;-86
2022/03/31 10:15:14;;;;;;;13.73;11.23;;;1.30;99.90;;;;;;5052885;28;20044;-86
2022/03/31 10:17:42;;;;;;;15.02;12.43;;;1.30;99.90;;;;;;5026846;28;20041;-86
2022/03/31 10:20:13;;;;;;;13.23;10.95;;;1.30;99.90;;;;;;5054129;28;20084;-85
2022/03/31 10:25:35;;;;;;;13.77;11.57;;;1.30;99.90;;;;;;5054240;28;20041;-85
2022/03/31 10:28:09;;;;;;;11.98;10.77;;;1.30;99.90;;;;;;5049851;28;20101;-83
2022/03/31 10:30:35;;;;;;;11.85;9.93;;;1.20;99.90;;;;;;5033011;28;20498;-85
2022/03/31 10:33:04;;;;;;;12.52;10.50;;;1.30;99.90;;;;;;5034768;28;20052;-85
2022/03/31 10:35:35;;;;;;;9.98;8.80;;;1.20;99.90;;;;;;5031121;28;20040;-84
2022/03/31 10:38:15;;;;;;;12.98;10.70;;;1.20;99.90;;;;;;5053536;28;20136;-84
2022/03/31 10:40:43;;;;;;;16.27;12.50;;;1.20;99.90;;;;;;5044550;28;20041;-84
2022/03/31 10:43:24;;;;;;;19.17;14.23;;;1.20;99.90;;;;;;5053574;28;20497;-84
2022/03/31 10:45:49;;;;;;;20.65;15.55;;;1.30;99.90;;;;;;5040397;28;20044;-83
2022/03/31 10:48:17;;;;;;;21.98;15.57;;;1.20;99.90;;;;;;5030958;28;20040;-83
2022/03/31 10:50:44;;;;;;;23.10;16.50;;;1.20;99.90;;;;;;5054183;28;20043;-83
2022/03/31 10:53:10;;;;;;;22.17;16.00;;;1.20;99.90;;;;;;5053874;28;20052;-83
2022/03/31 10:55:47;;;;;;;21.83;16.88;;;1.10;99.90;;;;;;5050078;28;20041;-83
2022/03/31 10:58:21;;;;;;;20.80;14.93;;;1.10;99.90;;;;;;5049636;28;20581;-83
2022/03/31 11:00:49;;;;;;;21.35;15.63;;;1.10;99.90;;;;;;5050981;28;20041;-82
2022/03/31 11:03:19;;;;;;;21.55;15.40;;;1.10;99.90;;;;;;5051839;28;20052;-83
2022/03/31 11:05:45;;;;;;;22.27;16.48;;;1.10;99.90;;;;;;5052522;28;20040;-83
2022/03/31 11:08:17;;;;;;;23.50;18.25;;;1.10;99.90;;;;;;5039714;28;20534;-83
2022/03/31 11:10:49;;;;;;;19.23;16.00;;;1.00;99.90;;;;;;5064314;28;20454;-83
2022/03/31 11:13:16;;;;;;;20.90;15.85;;;0.90;99.90;;;;;;5036880;28;20478;-83
2022/03/31 11:15:45;;;;;;;22.10;15.90;;;1.00;99.90;;;;;;5045009;28;20120;-83
2022/03/31 11:18:11;;;;;;;17.60;13.98;;;1.00;99.90;;;;;;5039186;28;20034;-83
2022/03/31 11:20:37;;;;;;;19.20;16.17;;;1.00;99.90;;;;;;5052392;28;20067;-83
2022/03/31 11:23:06;;;;;;;17.40;14.05;;;0.90;99.90;;;;;;5036727;28;20395;-83
2022/03/31 11:25:32;;;;;;;16.70;13.40;;;0.90;99.90;;;;;;5035890;28;20112;-83
2022/03/31 11:28:09;;;;;;;14.40;12.73;;;1.00;99.90;;;;;;5039505;28;20099;-82
2022/03/31 11:30:35;;;;;;;15.80;13.65;;;1.00;99.90;;;;;;5050827;28;20119;-82
2022/03/31 11:33:02;;;;;;;16.83;14.25;;;1.00;99.90;;;;;;5050598;28;20901;-82
2022/03/31 11:35:29;;;;;;;16.63;13.65;;;0.90;99.90;;;;;;5050092;28;20083;-82
2022/03/31 11:38:09;;;;;;;11.85;10.60;;;0.90;99.90;;;;;;5033579;28;20292;-82
2022/03/31 11:40:40;;;;;;;14.23;12.15;;;1.00;99.90;;;;;;5033632;28;20037;-82
2022/03/31 11:43:09;;;;;;;13.95;11.82;;;1.00;99.90;;;;;;5046649;28;20045;-82
2022/03/31 11:45:36;;;;;;;14.55;12.13;;;0.90;99.90;;;;;;5048209;28;20037;-82
2022/03/31 11:48:06;;;;;;;15.90;14.13;;;0.90;99.90;;;;;;5048451;28;20051;-84
2022/03/31 11:50:34;;;;;;;13.85;12.15;;;0.90;99.90;;;;;;5051392;28;20033;-84
2022/03/31 11:53:00;;;;;;;14.70;13.18;;;0.90;99.90;;;;;;5034713;28;20072;-85
2022/03/31 11:55:27;;;;;;;15.60;13.90;;;0.90;99.90;;;;;;5048918;28;20076;-86
2022/03/31 11:57:59;;;;;;;17.83;15.65;;;0.90;99.90;;;;;;5047309;28;20033;-86
2022/03/31 12:00:30;;;;;;;19.42;17.10;;;1.00;99.90;;;;;;5047571;28;20211;-86
2022/03/31 12:02:59;;;;;;;20.60;17.92;;;1.00;99.90;;;;;;5046671;28;20560;-86
2022/03/31 12:05:25;;;;;;;18.13;16.15;;;1.00;99.90;;;;;;5050546;28;20040;-87
2022/03/31 12:07:52;;;;;;;17.08;14.00;;;1.00;99.90;;;;;;5045387;28;20052;-87
2022/03/31 12:10:18;;;;;;;20.20;16.55;;;1.00;99.90;;;;;;5043679;28;20041;-88
2022/03/31 12:13:05;;;;;;;21.27;17.98;;;1.00;99.90;;;;;;5028004;28;20029;-88
2022/03/31 12:15:31;;;;;;;20.23;17.73;;;1.00;99.90;;;;;;5042131;28;20725;-90
2022/03/31 12:17:58;;;;;;;23.05;20.55;;;1.00;99.90;;;;;;5034721;28;20079;-88
2022/03/31 12:20:24;;;;;;;24.73;22.13;;;1.00;99.90;;;;;;5056560;28;20029;-89
2022/03/31 12:22:51;;;;;;;22.92;18.33;;;1.00;99.90;;;;;;5044905;28;20066;-88
2022/03/31 12:25:34;;;;;;;20.80;18.63;;;1.00;99.90;;;;;;5048653;28;20041;-89
2022/03/31 12:28:05;;;;;;;20.58;18.38;;;1.00;99.90;;;;;;5051135;28;20178;-90
2022/03/31 12:30:45;;;;;;;19.17;17.15;;;1.00;99.90;;;;;;5027397;28;20491;-89
2022/03/31 12:33:24;;;;;;;19.95;17.52;;;1.10;99.90;;;;;;5041849;28;20033;-89
2022/03/31 12:36:07;;;;;;;20.08;17.75;;;1.10;99.90;;;;;;5031960;28;20483;-87
2022/03/31 12:38:49;;;;;;;21.02;16.88;;;1.10;99.90;;;;;;5049008;28;20437;-88
2022/03/31 12:41:22;;;;;;;19.35;15.85;;;1.10;99.90;;;;;;5051356;28;20045;-87
2022/03/31 12:43:59;;;;;;;23.67;18.45;;;1.20;99.90;;;;;;5042206;28;20471;-88
2022/03/31 12:46:28;;;;;;;21.73;19.05;;;1.20;99.90;;;;;;5029936;28;20045;-87
2022/03/31 12:48:56;;;;;;;26.42;19.77;;;1.20;99.90;;;;;;5051620;28;20044;-87
2022/03/31 12:51:23;;;;;;;26.85;21.55;;;1.30;99.90;;;;;;5053135;28;20043;-87
2022/03/31 12:53:49;;;;;;;24.92;20.77;;;1.30;99.90;;;;;;5039103;28;20040;-87
2022/03/31 12:56:27;;;;;;;25.63;22.58;;;1.40;99.90;;;;;;5052969;28;20037;-87
2022/03/31 12:58:55;;;;;;;27.52;23.77;;;1.40;99.90;;;;;;5025668;28;20037;-87